Time;durP1;ratioP1;P1;durP2;ratioP2;P2;SDS_P1;SDS_P2;PMS_P1;PMS_P2;Temp;Humidity;BMP_temperature;BMP_pressure;BME280_temperature;BME280_humidity;BME280_pressure;Samples;Min_cycle;Max_cycle;Signal;HPM_P1;HPM_P2
2023/04/25 00:00:48;;;;;;;7.03;3.17;;;;;;;;;;4908803;28;20147;-61
2023/04/25 00:03:22;;;;;;;9.43;3.30;;;;;;;;;;4913114;28;20939;-60
2023/04/25 00:05:48;;;;;;;8.38;3.50;;;;;;;;;;4912706;28;20084;-59
2023/04/25 00:08:18;;;;;;;6.97;3.17;;;;;;;;;;4908960;29;20075;-60
2023/04/25 00:10:46;;;;;;;7.60;3.45;;;;;;;;;;4918126;28;20051;-58
2023/04/25 00:13:17;;;;;;;7.82;3.65;;;;;;;;;;4923411;28;20052;-57
2023/04/25 00:15:43;;;;;;;6.75;3.33;;;;;;;;;;4911138;28;20067;-63
2023/04/25 00:18:11;;;;;;;6.00;3.38;;;;;;;;;;4913345;28;20468;-57
2023/04/25 00:20:36;;;;;;;8.75;2.90;;;;;;;;;;4913673;28;20100;-63
2023/04/25 00:23:02;;;;;;;4.65;2.70;;;;;;;;;;4910753;28;20471;-61
2023/04/25 00:25:28;;;;;;;7.20;3.30;;;;;;;;;;4910315;28;20048;-60
2023/04/25 00:27:55;;;;;;;11.27;3.15;;;;;;;;;;4912732;28;20052;-62
2023/04/25 00:30:20;;;;;;;8.35;3.10;;;;;;;;;;4925687;28;20080;-59
2023/04/25 00:32:47;;;;;;;8.88;3.13;;;;;;;;;;4910060;28;20055;-60
2023/04/25 00:35:12;;;;;;;7.45;3.58;;;;;;;;;;4910919;28;20172;-59
2023/04/25 00:37:39;;;;;;;8.68;4.40;;;;;;;;;;4914244;28;20071;-59
2023/04/25 00:40:26;;;;;;;8.65;3.85;;;;;;;;;;4911109;29;20056;-60
2023/04/25 00:44:06;;;;;;;8.52;3.50;;;;;;;;;;4910057;28;20059;-60
2023/04/25 00:47:50;;;;;;;8.65;3.20;;;;;;;;;;4910848;28;20114;-62
2023/04/25 00:51:27;;;;;;;8.75;3.05;;;;;;;;;;4910695;28;20047;-60
2023/04/25 00:55:07;;;;;;;5.55;3.15;;;;;;;;;;4910095;29;20067;-60
2023/04/25 00:58:47;;;;;;;9.77;3.35;;;;;;;;;;4910350;28;20062;-61
2023/04/25 01:02:28;;;;;;;7.43;3.50;;;;;;;;;;4910439;28;20386;-58
2023/04/25 01:06:09;;;;;;;11.55;4.40;;;;;;;;;;4910443;28;20048;-59
2023/04/25 01:09:49;;;;;;;8.50;4.18;;;;;;;;;;4913846;29;20142;-60
2023/04/25 01:13:29;;;;;;;9.55;3.67;;;;;;;;;;4923398;28;20558;-58
2023/04/25 01:17:11;;;;;;;8.02;3.65;;;;;;;;;;4915298;29;20279;-58
2023/04/25 01:20:51;;;;;;;10.50;3.05;;;;;;;;;;4911338;29;20582;-58
2023/04/25 01:24:31;;;;;;;7.70;2.97;;;;;;;;;;4909481;28;20059;-61
2023/04/25 01:28:12;;;;;;;10.65;3.80;;;;;;;;;;4909557;28;20504;-60
2023/04/25 01:31:52;;;;;;;7.97;2.92;;;;;;;;;;4913808;28;20150;-61
2023/04/25 01:35:32;;;;;;;10.02;3.15;;;;;;;;;;4910221;28;20677;-60
2023/04/25 01:39:13;;;;;;;6.05;2.70;;;;;;;;;;4911665;28;20055;-62
2023/04/25 01:42:53;;;;;;;10.60;2.90;;;;;;;;;;4909416;28;20077;-60
2023/04/25 01:46:33;;;;;;;4.25;2.67;;;;;;;;;;4913801;29;20181;-60
2023/04/25 01:50:14;;;;;;;8.02;2.95;;;;;;;;;;4912173;28;20055;-61
2023/04/25 01:53:54;;;;;;;7.88;2.88;;;;;;;;;;4911681;28;20056;-57
2023/04/25 01:57:35;;;;;;;7.13;2.75;;;;;;;;;;4910038;29;20296;-60
2023/04/25 02:01:15;;;;;;;5.78;2.60;;;;;;;;;;4909245;28;20417;-58
2023/04/25 02:04:56;;;;;;;8.45;2.60;;;;;;;;;;4908504;28;20051;-62
2023/04/25 02:08:37;;;;;;;4.85;2.72;;;;;;;;;;4911761;28;20101;-59
2023/04/25 02:12:16;;;;;;;9.02;2.45;;;;;;;;;;4921728;28;20051;-60
2023/04/25 02:15:17;;;;;;;8.70;2.97;;;;;;;;;;4905709;29;20334;-60
2023/04/25 02:18:23;;;;;;;7.65;2.60;;;;;;;;;;4921560;28;20060;-60
2023/04/25 02:22:03;;;;;;;10.30;3.03;;;;;;;;;;4909608;28;20063;-61
2023/04/25 02:25:44;;;;;;;7.80;2.80;;;;;;;;;;4907592;28;20043;-58
2023/04/25 02:29:24;;;;;;;6.28;2.83;;;;;;;;;;4909771;28;20105;-60
2023/04/25 02:33:05;;;;;;;6.38;2.45;;;;;;;;;;4914135;28;20048;-60
2023/04/25 02:36:46;;;;;;;6.05;2.53;;;;;;;;;;4912445;28;20490;-60
2023/04/25 02:40:26;;;;;;;2.47;1.90;;;;;;;;;;4908199;28;20324;-60
2023/04/25 02:44:07;;;;;;;4.85;2.30;;;;;;;;;;4909258;29;20370;-60
2023/04/25 02:47:47;;;;;;;6.28;2.30;;;;;;;;;;4908381;28;20065;-60
2023/04/25 02:51:27;;;;;;;5.68;2.45;;;;;;;;;;4907404;29;20060;-57
2023/04/25 02:55:07;;;;;;;7.15;2.63;;;;;;;;;;4906052;29;20411;-59
2023/04/25 02:58:49;;;;;;;4.00;2.28;;;;;;;;;;4908435;28;20047;-60
2023/04/25 03:02:29;;;;;;;6.30;2.50;;;;;;;;;;4909418;28;20054;-60
2023/04/25 03:06:10;;;;;;;4.57;2.15;;;;;;;;;;4906238;28;20047;-61
2023/04/25 03:09:50;;;;;;;6.25;2.65;;;;;;;;;;4917171;28;20484;-58
2023/04/25 03:13:30;;;;;;;3.35;2.20;;;;;;;;;;4911670;29;20059;-59
2023/04/25 03:17:11;;;;;;;5.07;2.20;;;;;;;;;;4908188;28;20051;-59
2023/04/25 03:20:53;;;;;;;6.60;1.80;;;;;;;;;;4907253;28;20052;-58
2023/04/25 03:24:33;;;;;;;10.35;2.00;;;;;;;;;;4907520;29;20044;-60
2023/04/25 03:28:13;;;;;;;4.72;1.90;;;;;;;;;;4908697;28;20186;-60
2023/04/25 03:31:53;;;;;;;5.43;2.33;;;;;;;;;;4905111;29;20055;-60
2023/04/25 03:35:34;;;;;;;5.30;2.13;;;;;;;;;;4906971;28;20051;-58
2023/04/25 03:39:15;;;;;;;5.93;2.47;;;;;;;;;;4909436;28;20079;-59
2023/04/25 03:42:56;;;;;;;6.82;2.20;;;;;;;;;;4908846;28;20405;-61
2023/04/25 03:46:37;;;;;;;8.73;2.83;;;;;;;;;;4907655;29;20079;-60
2023/04/25 03:50:17;;;;;;;6.05;2.40;;;;;;;;;;4904821;28;20055;-59
2023/04/25 03:53:57;;;;;;;8.63;2.58;;;;;;;;;;4906353;28;20043;-60
2023/04/25 03:57:38;;;;;;;6.85;2.45;;;;;;;;;;4907117;28;20056;-60
2023/04/25 04:01:18;;;;;;;7.95;2.50;;;;;;;;;;4907431;28;20130;-61
2023/04/25 04:04:58;;;;;;;9.07;2.35;;;;;;;;;;4907741;28;20113;-60
2023/04/25 04:08:39;;;;;;;8.05;2.60;;;;;;;;;;4910371;28;20048;-59
2023/04/25 04:12:20;;;;;;;4.88;2.47;;;;;;;;;;4916315;28;20066;-59
2023/04/25 04:16:00;;;;;;;8.65;2.70;;;;;;;;;;4908173;28;20078;-60
2023/04/25 04:19:40;;;;;;;4.97;2.40;;;;;;;;;;4906399;28;20055;-58
2023/04/25 04:23:22;;;;;;;7.20;2.67;;;;;;;;;;4906114;29;20055;-61
2023/04/25 04:27:01;;;;;;;5.28;2.47;;;;;;;;;;4908830;28;20059;-61
2023/04/25 04:30:42;;;;;;;13.55;3.25;;;;;;;;;;4907904;28;20403;-60
2023/04/25 04:34:24;;;;;;;6.65;2.80;;;;;;;;;;4908943;28;20055;-63
2023/04/25 04:38:02;;;;;;;11.20;3.03;;;;;;;;;;4907879;28;20150;-61
2023/04/25 04:41:42;;;;;;;10.57;2.80;;;;;;;;;;4906774;28;20051;-57
2023/04/25 04:45:23;;;;;;;7.07;2.80;;;;;;;;;;4907860;28;20412;-59
2023/04/25 04:49:03;;;;;;;6.47;2.60;;;;;;;;;;4908040;28;20066;-60
2023/04/25 04:52:44;;;;;;;9.52;2.60;;;;;;;;;;4908826;28;20492;-61
2023/04/25 04:56:25;;;;;;;8.90;2.35;;;;;;;;;;4905628;28;20140;-59
2023/04/25 05:00:05;;;;;;;8.48;2.70;;;;;;;;;;4920267;28;20550;-60
2023/04/25 05:03:45;;;;;;;6.18;2.50;;;;;;;;;;4912779;28;20055;-63
2023/04/25 05:07:25;;;;;;;7.85;2.60;;;;;;;;;;4909676;28;20440;-61
2023/04/25 05:11:05;;;;;;;8.70;2.67;;;;;;;;;;4914587;28;20074;-61
2023/04/25 05:14:46;;;;;;;10.02;2.40;;;;;;;;;;4913768;29;20059;-60
2023/04/25 05:18:26;;;;;;;8.25;2.60;;;;;;;;;;4911654;28;20098;-61
2023/04/25 05:22:06;;;;;;;6.93;2.20;;;;;;;;;;4910899;28;20051;-61
2023/04/25 05:25:47;;;;;;;8.93;2.92;;;;;;;;;;4909591;28;20368;-59
2023/04/25 05:29:27;;;;;;;11.10;2.97;;;;;;;;;;4912923;28;20055;-61
2023/04/25 05:33:07;;;;;;;8.50;2.80;;;;;;;;;;4913182;28;20043;-68
2023/04/25 05:36:48;;;;;;;6.85;2.67;;;;;;;;;;4910496;29;20190;-64
2023/04/25 05:40:29;;;;;;;10.93;2.97;;;;;;;;;;4905578;28;20044;-62
2023/04/25 05:44:09;;;;;;;8.05;3.25;;;;;;;;;;4914939;29;20353;-59
2023/04/25 05:47:49;;;;;;;10.50;3.75;;;;;;;;;;4912219;28;20048;-65
2023/04/25 05:51:31;;;;;;;9.25;3.20;;;;;;;;;;4912510;28;20107;-61
2023/04/25 05:55:11;;;;;;;20.63;3.15;;;;;;;;;;4911398;28;20060;-63
2023/04/25 05:58:51;;;;;;;19.77;3.78;;;;;;;;;;4913445;28;20146;-62
2023/04/25 06:02:31;;;;;;;15.95;3.10;;;;;;;;;;4913131;28;20121;-63
2023/04/25 06:06:12;;;;;;;9.60;3.10;;;;;;;;;;4910450;28;20059;-60
2023/04/25 06:09:53;;;;;;;9.30;3.15;;;;;;;;;;4916806;28;20094;-60
2023/04/25 06:13:33;;;;;;;14.05;3.30;;;;;;;;;;4914335;28;20425;-60
2023/04/25 06:17:13;;;;;;;8.52;3.17;;;;;;;;;;4910243;28;20916;-61
2023/04/25 06:20:54;;;;;;;11.05;3.60;;;;;;;;;;4910431;28;20158;-63
2023/04/25 06:24:34;;;;;;;12.90;3.03;;;;;;;;;;4910510;28;20052;-60
2023/04/25 06:28:14;;;;;;;12.93;3.33;;;;;;;;;;4907643;28;20562;-61
2023/04/25 06:31:55;;;;;;;19.80;3.83;;;;;;;;;;4909194;28;20051;-59
2023/04/25 06:35:35;;;;;;;15.95;4.60;;;;;;;;;;4910717;28;20472;-59
2023/04/25 06:39:16;;;;;;;9.57;4.05;;;;;;;;;;4913056;28;20121;-62
2023/04/25 06:42:55;;;;;;;13.73;4.80;;;;;;;;;;4908606;28;20489;-60
2023/04/25 06:46:37;;;;;;;21.23;6.03;;;;;;;;;;4907733;28;20549;-60
2023/04/25 06:50:16;;;;;;;16.40;6.43;;;;;;;;;;4908934;28;20082;-61
2023/04/25 06:53:57;;;;;;;18.67;5.63;;;;;;;;;;4910258;28;20056;-63
2023/04/25 06:57:38;;;;;;;18.67;5.60;;;;;;;;;;4908027;28;20686;-58
2023/04/25 07:01:18;;;;;;;19.95;5.55;;;;;;;;;;4910623;28;20079;-62
2023/04/25 07:04:59;;;;;;;17.55;5.10;;;;;;;;;;4910626;29;20059;-65
2023/04/25 07:08:40;;;;;;;16.73;6.32;;;;;;;;;;4907576;28;20059;-59
2023/04/25 07:12:21;;;;;;;19.15;6.50;;;;;;;;;;4923942;28;20079;-61
2023/04/25 07:16:01;;;;;;;24.30;6.50;;;;;;;;;;4910095;28;20054;-64
2023/04/25 07:19:44;;;;;;;23.58;7.15;;;;;;;;;;4906515;28;20043;-61
2023/04/25 07:23:24;;;;;;;22.10;6.75;;;;;;;;;;4908825;29;20059;-62
2023/04/25 07:27:06;;;;;;;24.27;5.93;;;;;;;;;;4906362;28;20131;-60
2023/04/25 07:30:45;;;;;;;18.77;3.80;;;;;;;;;;4908432;29;20055;-61
2023/04/25 07:34:26;;;;;;;13.20;3.72;;;;;;;;;;4904877;28;20055;-62
2023/04/25 07:38:06;;;;;;;12.70;2.92;;;;;;;;;;4907641;28;20472;-66
2023/04/25 07:41:46;;;;;;;14.95;3.65;;;;;;;;;;4905522;29;20142;-61
2023/04/25 07:45:27;;;;;;;11.70;2.65;;;;;;;;;;4908977;28;20492;-62
2023/04/25 07:49:07;;;;;;;8.20;2.08;;;;;;;;;;4905594;28;20063;-61
2023/04/25 07:52:47;;;;;;;12.60;1.70;;;;;;;;;;4912593;28;22020;-62
2023/04/25 07:56:29;;;;;;;10.20;2.30;;;;;;;;;;4906638;28;20325;-63
2023/04/25 08:00:11;;;;;;;11.82;2.05;;;;;;;;;;4907454;28;20492;-63
2023/04/25 08:03:52;;;;;;;12.25;1.98;;;;;;;;;;4905564;28;20658;-60
2023/04/25 08:07:33;;;;;;;9.15;1.77;;;;;;;;;;4906590;28;20135;-63
2023/04/25 08:11:13;;;;;;;8.43;1.92;;;;;;;;;;4905365;28;20051;-61
2023/04/25 08:14:53;;;;;;;11.27;2.00;;;;;;;;;;4907895;28;20396;-65
2023/04/25 08:18:34;;;;;;;10.43;2.60;;;;;;;;;;4906877;28;20052;-61
2023/04/25 08:22:15;;;;;;;8.52;2.38;;;;;;;;;;4908058;28;20415;-61
2023/04/25 08:25:55;;;;;;;8.45;2.42;;;;;;;;;;4910284;28;20051;-60
2023/04/25 08:29:35;;;;;;;7.30;2.10;;;;;;;;;;4915885;28;20107;-59
2023/04/25 08:33:18;;;;;;;6.00;1.80;;;;;;;;;;4915182;28;20106;-63
2023/04/25 08:36:59;;;;;;;14.35;2.10;;;;;;;;;;4912048;28;20458;-64
2023/04/25 08:40:39;;;;;;;11.27;1.95;;;;;;;;;;4910513;28;20059;-63
2023/04/25 08:44:20;;;;;;;5.38;1.52;;;;;;;;;;4908024;28;20530;-61
2023/04/25 08:48:01;;;;;;;5.13;1.45;;;;;;;;;;4911481;28;20104;-63
2023/04/25 08:51:42;;;;;;;9.23;1.48;;;;;;;;;;4910609;28;20055;-64
2023/04/25 08:55:22;;;;;;;9.20;1.63;;;;;;;;;;4908132;28;20485;-64
2023/04/25 08:59:02;;;;;;;7.65;1.85;;;;;;;;;;4909113;28;20456;-61
2023/04/25 09:02:43;;;;;;;6.50;1.45;;;;;;;;;;4912637;28;21320;-61
2023/04/25 09:06:24;;;;;;;4.90;2.13;;;;;;;;;;4910681;28;20163;-62
2023/04/25 09:10:04;;;;;;;7.97;2.63;;;;;;;;;;4910781;28;20487;-62
2023/04/25 09:13:47;;;;;;;12.25;2.65;;;;;;;;;;4924773;28;20050;-63
2023/04/25 09:17:40;;;;;;;8.13;3.10;;;;;;;;;;4911977;28;20277;-64
2023/04/25 09:21:30;;;;;;;9.27;2.83;;;;;;;;;;4910033;28;20421;-60
2023/04/25 09:25:14;;;;;;;9.02;2.40;;;;;;;;;;4911215;28;20784;-61
2023/04/25 09:28:53;;;;;;;11.38;2.78;;;;;;;;;;4911063;28;20048;-62
2023/04/25 09:32:13;;;;;;;11.80;2.30;;;;;;;;;;4910697;29;21923;-63
2023/04/25 09:35:56;;;;;;;8.98;2.03;;;;;;;;;;4911057;29;20468;-59
2023/04/25 09:39:37;;;;;;;10.52;1.90;;;;;;;;;;4909002;28;20491;-61
2023/04/25 09:43:17;;;;;;;10.45;2.30;;;;;;;;;;4909417;28;20058;-64
2023/04/25 09:46:58;;;;;;;9.68;2.03;;;;;;;;;;4917604;28;20467;-62
2023/04/25 09:50:39;;;;;;;9.10;2.15;;;;;;;;;;4911540;28;20154;-63
2023/04/25 09:54:18;;;;;;;15.10;1.90;;;;;;;;;;4909897;28;20052;-60
2023/04/25 09:57:58;;;;;;;4.47;1.90;;;;;;;;;;4911544;28;20138;-64
2023/04/25 10:01:39;;;;;;;12.20;2.22;;;;;;;;;;4908693;28;20051;-62
2023/04/25 10:05:19;;;;;;;6.13;1.83;;;;;;;;;;4909018;29;20074;-61
2023/04/25 10:09:00;;;;;;;19.90;3.20;;;;;;;;;;4908419;28;20246;-59
2023/04/25 10:12:42;;;;;;;14.63;3.50;;;;;;;;;;4917018;28;20051;-63
2023/04/25 10:16:20;;;;;;;27.85;6.15;;;;;;;;;;4910747;29;20059;-61
2023/04/25 10:20:00;;;;;;;28.13;6.70;;;;;;;;;;4916747;29;20051;-60
2023/04/25 10:23:45;;;;;;;30.70;7.70;;;;;;;;;;4910264;28;20285;-61
2023/04/25 10:27:24;;;;;;;20.38;7.28;;;;;;;;;;4909032;28;21782;-62
2023/04/25 10:31:22;;;;;;;23.42;5.97;;;;;;;;;;4912664;28;20495;-61
2023/04/25 10:35:06;;;;;;;29.42;7.25;;;;;;;;;;4908087;28;20048;-66
2023/04/25 10:38:52;;;;;;;19.17;5.97;;;;;;;;;;4910796;28;20281;-61
2023/04/25 10:42:33;;;;;;;18.42;5.35;;;;;;;;;;4912812;29;20110;-64
2023/04/25 10:46:14;;;;;;;15.13;4.38;;;;;;;;;;4910939;28;20121;-60
2023/04/25 10:50:09;;;;;;;16.85;4.88;;;;;;;;;;4910457;29;20064;-63
2023/04/25 10:53:50;;;;;;;21.30;4.78;;;;;;;;;;4909691;28;20062;-62
2023/04/25 10:57:30;;;;;;;11.55;3.90;;;;;;;;;;4912036;28;20585;-62
2023/04/25 11:01:10;;;;;;;12.15;3.83;;;;;;;;;;4912417;29;20062;-62
2023/04/25 11:04:49;;;;;;;14.40;4.38;;;;;;;;;;4911050;28;20120;-69
2023/04/25 11:08:30;;;;;;;12.77;3.67;;;;;;;;;;4910347;28;20076;-62
2023/04/25 11:12:13;;;;;;;12.27;3.30;;;;;;;;;;4924572;28;22128;-60
2023/04/25 11:15:53;;;;;;;10.07;3.53;;;;;;;;;;4911955;28;20261;-61
2023/04/25 11:19:33;;;;;;;12.25;3.25;;;;;;;;;;4911864;29;20508;-61
2023/04/25 11:23:13;;;;;;;7.93;3.45;;;;;;;;;;4910135;28;20051;-60
2023/04/25 11:26:55;;;;;;;11.52;4.30;;;;;;;;;;4912738;28;20114;-62
2023/04/25 11:30:51;;;;;;;14.30;4.40;;;;;;;;;;4920225;28;20039;-62
2023/04/25 11:34:32;;;;;;;11.48;3.20;;;;;;;;;;4910354;28;20067;-62
2023/04/25 11:38:11;;;;;;;7.10;3.00;;;;;;;;;;4909913;28;20724;-62
2023/04/25 11:41:52;;;;;;;9.27;2.80;;;;;;;;;;4919958;28;20050;-62
2023/04/25 11:45:33;;;;;;;7.25;2.92;;;;;;;;;;4909022;28;20072;-61
2023/04/25 11:49:21;;;;;;;8.70;2.33;;;;;;;;;;4910265;28;20235;-60
2023/04/25 11:53:00;;;;;;;14.43;2.38;;;;;;;;;;4910573;28;20055;-62
2023/04/25 11:56:40;;;;;;;8.10;2.55;;;;;;;;;;4909527;28;20043;-60
2023/04/25 12:00:08;;;;;;;10.60;2.28;;;;;;;;;;4910661;28;20047;-61
2023/04/25 12:03:47;;;;;;;8.23;2.50;;;;;;;;;;4907211;28;20210;-61
2023/04/25 12:07:27;;;;;;;11.73;3.03;;;;;;;;;;4905855;28;20449;-63
2023/04/25 12:11:08;;;;;;;12.68;2.60;;;;;;;;;;4911881;28;20063;-65
2023/04/25 12:14:48;;;;;;;10.55;2.63;;;;;;;;;;4924227;29;20043;-62
2023/04/25 12:18:28;;;;;;;10.70;2.28;;;;;;;;;;4908287;28;20524;-65
2023/04/25 12:22:09;;;;;;;8.70;2.00;;;;;;;;;;4907389;28;20090;-61
2023/04/25 12:25:58;;;;;;;8.88;2.13;;;;;;;;;;4907147;29;20470;-66
2023/04/25 12:29:38;;;;;;;11.32;2.60;;;;;;;;;;4910311;28;20048;-63
2023/04/25 12:33:18;;;;;;;10.57;2.10;;;;;;;;;;4909852;28;20094;-61
2023/04/25 12:37:00;;;;;;;11.20;2.22;;;;;;;;;;4911102;28;20063;-61
2023/04/25 12:40:41;;;;;;;8.57;1.85;;;;;;;;;;4905946;28;20051;-65
2023/04/25 12:44:22;;;;;;;6.28;2.10;;;;;;;;;;4907739;29;20502;-62
2023/04/25 12:48:02;;;;;;;9.80;2.35;;;;;;;;;;4908069;28;20064;-62
2023/04/25 12:51:43;;;;;;;12.23;2.38;;;;;;;;;;4907011;28;20059;-64
2023/04/25 12:55:23;;;;;;;14.30;2.13;;;;;;;;;;4908037;28;20415;-61
2023/04/25 12:59:06;;;;;;;9.55;2.20;;;;;;;;;;4907791;28;20058;-63
2023/04/25 13:02:47;;;;;;;10.32;2.30;;;;;;;;;;4908624;28;20051;-65
2023/04/25 13:06:27;;;;;;;9.10;1.67;;;;;;;;;;4906261;29;20653;-62
2023/04/25 13:10:08;;;;;;;10.10;1.73;;;;;;;;;;4908172;28;20139;-62
2023/04/25 13:13:49;;;;;;;10.30;1.80;;;;;;;;;;4916453;28;20506;-62
2023/04/25 13:17:29;;;;;;;6.18;1.67;;;;;;;;;;4912831;28;20134;-64
2023/04/25 13:21:11;;;;;;;12.02;2.10;;;;;;;;;;4912182;28;20431;-62
2023/04/25 13:24:51;;;;;;;12.63;2.33;;;;;;;;;;4909001;28;20055;-62
2023/04/25 13:28:31;;;;;;;6.55;1.75;;;;;;;;;;4911120;28;20442;-62
2023/04/25 13:32:12;;;;;;;11.23;2.00;;;;;;;;;;4916665;28;20058;-64
2023/04/25 13:35:56;;;;;;;12.77;2.40;;;;;;;;;;4911076;29;20519;-63
2023/04/25 13:39:35;;;;;;;8.52;1.50;;;;;;;;;;4909324;28;20051;-63
2023/04/25 13:43:17;;;;;;;13.40;1.85;;;;;;;;;;4911710;28;20165;-64
2023/04/25 13:46:57;;;;;;;9.00;2.03;;;;;;;;;;4910855;29;20101;-65
2023/04/25 13:50:37;;;;;;;6.55;1.50;;;;;;;;;;4911634;28;20795;-65
2023/04/25 13:54:19;;;;;;;4.82;1.70;;;;;;;;;;4909490;28;20082;-62
2023/04/25 13:57:59;;;;;;;8.25;1.63;;;;;;;;;;4910344;28;20758;-63
2023/04/25 14:01:40;;;;;;;11.75;2.00;;;;;;;;;;4910924;28;20114;-62
2023/04/25 14:05:20;;;;;;;9.48;2.08;;;;;;;;;;4909720;28;20399;-61
2023/04/25 14:09:00;;;;;;;8.57;2.10;;;;;;;;;;4909304;29;20059;-63
2023/04/25 14:12:41;;;;;;;7.82;2.08;;;;;;;;;;4922022;28;20661;-62
2023/04/25 14:16:22;;;;;;;11.90;2.03;;;;;;;;;;4910383;28;20143;-63
2023/04/25 14:20:01;;;;;;;4.65;1.73;;;;;;;;;;4911219;29;20086;-64
2023/04/25 14:23:41;;;;;;;8.73;2.05;;;;;;;;;;4908213;28;20051;-63
2023/04/25 14:27:22;;;;;;;9.48;1.85;;;;;;;;;;4908697;28;20106;-60
2023/04/25 14:31:02;;;;;;;6.53;1.80;;;;;;;;;;4914388;28;20122;-62
2023/04/25 14:34:45;;;;;;;7.70;1.75;;;;;;;;;;4911166;28;20047;-63
2023/04/25 14:38:25;;;;;;;7.60;2.20;;;;;;;;;;4909237;28;20208;-62
2023/04/25 14:42:05;;;;;;;8.95;1.92;;;;;;;;;;4906150;28;20090;-63
2023/04/25 14:45:46;;;;;;;5.15;1.90;;;;;;;;;;4908551;28;20853;-63
2023/04/25 14:49:28;;;;;;;9.05;2.13;;;;;;;;;;4906860;28;20464;-64
2023/04/25 14:53:06;;;;;;;9.13;2.10;;;;;;;;;;4910239;28;20113;-63
2023/04/25 14:56:47;;;;;;;9.75;2.25;;;;;;;;;;4912218;28;20556;-63
2023/04/25 15:00:27;;;;;;;9.00;2.22;;;;;;;;;;4906123;28;20051;-66
2023/04/25 15:04:08;;;;;;;9.05;1.90;;;;;;;;;;4909111;29;20103;-63
2023/04/25 15:07:48;;;;;;;9.02;2.33;;;;;;;;;;4909307;29;20078;-63
2023/04/25 15:11:28;;;;;;;10.48;3.05;;;;;;;;;;4917131;28;20180;-64
2023/04/25 15:15:11;;;;;;;15.60;3.47;;;;;;;;;;4912264;29;20083;-65
2023/04/25 15:18:53;;;;;;;8.07;2.50;;;;;;;;;;4912367;28;22506;-63
2023/04/25 15:22:33;;;;;;;14.88;2.70;;;;;;;;;;4913613;28;20110;-64
2023/04/25 15:26:14;;;;;;;10.68;2.60;;;;;;;;;;4911553;28;20568;-65
2023/04/25 15:29:54;;;;;;;8.90;2.38;;;;;;;;;;4912695;28;20129;-68
2023/04/25 15:33:34;;;;;;;8.00;2.60;;;;;;;;;;4913322;28;20047;-64
2023/04/25 15:36:35;;;;;;;6.43;2.67;;;;;;;;;;4910215;28;20637;-63
2023/04/25 15:39:41;;;;;;;7.05;2.65;;;;;;;;;;4921854;28;20165;-64
2023/04/25 15:43:25;;;;;;;7.95;2.90;;;;;;;;;;4909581;28;20098;-63
2023/04/25 15:47:05;;;;;;;9.18;2.85;;;;;;;;;;4910630;28;20075;-64
2023/04/25 15:50:46;;;;;;;9.35;3.05;;;;;;;;;;4906700;28;20376;-62
2023/04/25 15:54:26;;;;;;;8.10;3.42;;;;;;;;;;4911877;28;20054;-64
2023/04/25 15:58:06;;;;;;;7.90;2.70;;;;;;;;;;4910575;28;20053;-62
2023/04/25 16:01:46;;;;;;;7.80;2.58;;;;;;;;;;4911569;28;20063;-66
2023/04/25 16:05:25;;;;;;;9.55;2.83;;;;;;;;;;4908253;28;20181;-66
2023/04/25 16:08:08;;;;;;;17.98;2.78;;;;;;;;;;4911115;28;20130;-60
2023/04/25 16:11:13;;;;;;;9.35;2.83;;;;;;;;;;4914354;28;20105;-63
2023/04/25 16:13:44;;;;;;;16.83;3.65;;;;;;;;;;4913151;29;20069;-61
2023/04/25 16:16:10;;;;;;;9.38;2.72;;;;;;;;;;4909775;28;20495;-60
2023/04/25 16:19:16;;;;;;;6.10;2.63;;;;;;;;;;4907409;28;20052;-61
2023/04/25 16:23:00;;;;;;;8.18;2.70;;;;;;;;;;4908857;28;20768;-61
2023/04/25 16:26:21;;;;;;;7.10;2.80;;;;;;;;;;4907015;28;20552;-60
2023/04/25 16:28:47;;;;;;;8.65;2.55;;;;;;;;;;4909468;28;20055;-61
2023/04/25 16:31:13;;;;;;;7.82;2.53;;;;;;;;;;4912882;28;20052;-62
2023/04/25 16:33:40;;;;;;;7.90;2.70;;;;;;;;;;4914288;28;20413;-62
2023/04/25 16:36:27;;;;;;;13.52;2.92;;;;;;;;;;4919472;28;20067;-62
2023/04/25 16:39:32;;;;;;;10.68;2.90;;;;;;;;;;4910747;28;20043;-69
2023/04/25 16:43:16;;;;;;;8.40;2.75;;;;;;;;;;4908769;28;20419;-63
2023/04/25 16:46:56;;;;;;;8.30;2.78;;;;;;;;;;4915291;28;20043;-63
2023/04/25 16:50:37;;;;;;;5.55;2.65;;;;;;;;;;4913224;28;20516;-62
2023/04/25 16:54:18;;;;;;;9.05;2.90;;;;;;;;;;4913805;28;20075;-64
2023/04/25 16:57:58;;;;;;;10.07;2.60;;;;;;;;;;4912314;28;20060;-64
2023/04/25 17:01:38;;;;;;;7.75;2.60;;;;;;;;;;4909268;28;20054;-61
2023/04/25 17:05:19;;;;;;;8.63;2.50;;;;;;;;;;4911048;28;20052;-61
2023/04/25 17:08:59;;;;;;;12.73;3.30;;;;;;;;;;4911185;28;20489;-67
2023/04/25 17:12:40;;;;;;;16.13;2.55;;;;;;;;;;4924813;28;20057;-62
2023/04/25 17:16:22;;;;;;;15.60;2.85;;;;;;;;;;4917949;28;20051;-61
2023/04/25 17:20:04;;;;;;;10.45;3.13;;;;;;;;;;4912705;28;20044;-63
2023/04/25 17:23:44;;;;;;;8.32;2.67;;;;;;;;;;4908171;28;20079;-63
2023/04/25 17:27:22;;;;;;;8.20;2.78;;;;;;;;;;4905745;28;20048;-60
2023/04/25 17:31:03;;;;;;;12.88;3.08;;;;;;;;;;4909610;28;21486;-62
2023/04/25 17:34:45;;;;;;;12.48;3.10;;;;;;;;;;4910125;28;20518;-62
2023/04/25 17:38:25;;;;;;;9.25;3.40;;;;;;;;;;4903979;29;20064;-61
2023/04/25 17:42:05;;;;;;;11.50;3.78;;;;;;;;;;4904464;28;20051;-64
2023/04/25 17:45:47;;;;;;;12.43;4.07;;;;;;;;;;4910180;28;20810;-61
2023/04/25 17:49:27;;;;;;;11.25;4.78;;;;;;;;;;4912984;28;20484;-64
2023/04/25 17:53:08;;;;;;;14.20;5.20;;;;;;;;;;4914119;29;20062;-66
2023/04/25 17:56:48;;;;;;;13.43;5.07;;;;;;;;;;4908797;28;20464;-62
2023/04/25 18:00:30;;;;;;;13.73;5.20;;;;;;;;;;4909932;28;20148;-64
2023/04/25 18:04:13;;;;;;;16.83;5.57;;;;;;;;;;4909441;28;20075;-62
2023/04/25 18:07:53;;;;;;;17.33;5.90;;;;;;;;;;4903004;28;20769;-64
2023/04/25 18:11:34;;;;;;;14.20;5.47;;;;;;;;;;4911862;28;20150;-61
2023/04/25 18:15:14;;;;;;;10.65;4.93;;;;;;;;;;4908808;29;20058;-59
2023/04/25 18:19:03;;;;;;;19.02;5.07;;;;;;;;;;4906648;28;20415;-64
2023/04/25 18:22:35;;;;;;;16.15;5.28;;;;;;;;;;4912126;28;20055;-62
2023/04/25 18:26:15;;;;;;;10.90;5.13;;;;;;;;;;4908849;28;20046;-63
2023/04/25 18:29:55;;;;;;;14.00;5.20;;;;;;;;;;4911291;28;20051;-61
2023/04/25 18:33:36;;;;;;;16.42;5.50;;;;;;;;;;4911352;28;20066;-61
2023/04/25 18:37:16;;;;;;;12.27;4.90;;;;;;;;;;4907507;28;20468;-63
2023/04/25 18:40:57;;;;;;;10.30;4.57;;;;;;;;;;4909150;28;20039;-63
2023/04/25 18:44:41;;;;;;;14.25;4.47;;;;;;;;;;4903317;29;20055;-63
2023/04/25 18:48:21;;;;;;;11.57;4.47;;;;;;;;;;4902406;28;20119;-64
2023/04/25 18:52:02;;;;;;;10.68;4.72;;;;;;;;;;4908210;28;20274;-64
2023/04/25 18:55:42;;;;;;;10.40;4.63;;;;;;;;;;4901691;28;20051;-61
2023/04/25 18:59:22;;;;;;;19.27;5.20;;;;;;;;;;4905441;28;20424;-62
2023/04/25 19:01:52;;;;;;;11.55;5.30;;;;;;;;;;4905633;29;20061;-63
2023/04/25 19:04:20;;;;;;;17.50;5.55;;;;;;;;;;4907613;28;20059;-65
2023/04/25 19:06:48;;;;;;;12.00;4.72;;;;;;;;;;4922297;28;20063;-63
2023/04/25 19:09:15;;;;;;;13.75;5.70;;;;;;;;;;4908698;28;20489;-62
2023/04/25 19:11:42;;;;;;;12.43;5.63;;;;;;;;;;4911384;28;20040;-66
2023/04/25 19:14:08;;;;;;;13.02;5.65;;;;;;;;;;4901639;29;20060;-63
2023/04/25 19:16:37;;;;;;;14.98;5.50;;;;;;;;;;4924965;28;20115;-67
2023/04/25 19:19:04;;;;;;;17.20;6.10;;;;;;;;;;4908855;29;20059;-63
2023/04/25 19:21:31;;;;;;;14.85;6.13;;;;;;;;;;4912965;28;20063;-63
2023/04/25 19:24:00;;;;;;;13.25;5.90;;;;;;;;;;4907688;28;20166;-62
2023/04/25 19:26:27;;;;;;;14.07;5.45;;;;;;;;;;4907507;28;20583;-64
2023/04/25 19:29:08;;;;;;;13.98;6.18;;;;;;;;;;4903209;28;20782;-65
2023/04/25 19:31:37;;;;;;;13.85;6.20;;;;;;;;;;4903133;28;20060;-64
2023/04/25 19:34:08;;;;;;;15.77;6.25;;;;;;;;;;4921216;28;20147;-63
2023/04/25 19:36:37;;;;;;;13.93;6.00;;;;;;;;;;4906377;28;20060;-63
2023/04/25 19:39:03;;;;;;;13.43;6.15;;;;;;;;;;4907671;28;20520;-63
2023/04/25 19:41:31;;;;;;;15.65;6.30;;;;;;;;;;4911388;29;20036;-63
2023/04/25 19:44:03;;;;;;;12.15;5.78;;;;;;;;;;4912114;28;20788;-63
2023/04/25 19:46:33;;;;;;;16.35;5.90;;;;;;;;;;4904424;29;20068;-63
2023/04/25 19:48:59;;;;;;;11.95;5.32;;;;;;;;;;4907541;28;20055;-63
2023/04/25 19:51:27;;;;;;;14.90;5.65;;;;;;;;;;4908403;28;20054;-64
2023/04/25 19:53:54;;;;;;;10.93;5.65;;;;;;;;;;4907764;28;20598;-63
2023/04/25 19:56:21;;;;;;;17.75;5.95;;;;;;;;;;4908329;28;20652;-67
2023/04/25 19:58:47;;;;;;;15.52;5.50;;;;;;;;;;4911231;28;20062;-63
2023/04/25 20:01:17;;;;;;;12.13;5.80;;;;;;;;;;4908636;28;20153;-64
2023/04/25 20:03:46;;;;;;;12.88;5.85;;;;;;;;;;4904142;28;20408;-63
2023/04/25 20:06:17;;;;;;;10.55;5.22;;;;;;;;;;4905115;28;20490;-63
2023/04/25 20:08:43;;;;;;;13.07;5.38;;;;;;;;;;4909047;28;20064;-63
2023/04/25 20:11:11;;;;;;;11.15;5.25;;;;;;;;;;4905706;28;20386;-64
2023/04/25 20:13:37;;;;;;;13.65;5.40;;;;;;;;;;4909713;28;20229;-64
2023/04/25 20:16:04;;;;;;;12.88;4.97;;;;;;;;;;4914332;28;20060;-64
2023/04/25 20:18:29;;;;;;;8.13;5.00;;;;;;;;;;4912520;28;20448;-65
2023/04/25 20:20:55;;;;;;;9.20;5.03;;;;;;;;;;4917986;28;20048;-64
2023/04/25 20:23:24;;;;;;;11.70;5.30;;;;;;;;;;4914381;28;20118;-66
2023/04/25 20:25:52;;;;;;;13.85;5.50;;;;;;;;;;4912436;28;20051;-63
2023/04/25 20:28:21;;;;;;;8.88;4.65;;;;;;;;;;4915802;28;20428;-65
2023/04/25 20:30:48;;;;;;;13.32;5.22;;;;;;;;;;4912250;28;20056;-69
2023/04/25 20:33:14;;;;;;;12.15;5.10;;;;;;;;;;4907822;28;20063;-63